createdAt,value
2022-09-04T00:00:15.373Z,2.95
2022-09-04T00:03:03.812Z,2.65
2022-09-04T00:08:29.970Z,2.15
2022-09-04T00:11:08.430Z,3.03
2022-09-04T00:13:44.236Z,3.22
2022-09-04T00:16:15.149Z,4.07
2022-09-04T00:18:54.713Z,1.73
2022-09-04T00:22:00.936Z,3.53
2022-09-04T00:24:40.972Z,2.45
2022-09-04T00:27:17.336Z,2.88
2022-09-04T00:29:48.752Z,5.22
2022-09-04T00:32:38.778Z,2.60
2022-09-04T00:35:33.017Z,2.63
2022-09-04T00:38:12.354Z,7.43
2022-09-04T00:41:02.522Z,3.08
2022-09-04T00:43:39.259Z,4.30
2022-09-04T00:46:37.701Z,3.55
2022-09-04T00:49:11.789Z,2.65
2022-09-04T00:52:17.009Z,2.20
2022-09-04T00:54:45.753Z,4.45
2022-09-04T00:57:16.425Z,2.90
2022-09-04T01:00:16.114Z,5.68
2022-09-04T01:02:53.340Z,3.28
2022-09-04T01:05:40.655Z,3.78
2022-09-04T01:08:42.373Z,6.63
2022-09-04T01:11:59.152Z,4.40
2022-09-04T01:14:48.595Z,6.30
2022-09-04T01:17:27.827Z,5.88
2022-09-04T01:20:04.011Z,3.10
2022-09-04T01:22:55.011Z,4.25
2022-09-04T01:25:49.345Z,4.00
2022-09-04T01:28:37.225Z,5.80
2022-09-04T01:31:24.121Z,3.70
2022-09-04T01:34:14.155Z,4.57
2022-09-04T01:36:50.927Z,3.72
2022-09-04T01:39:21.351Z,4.03
2022-09-04T01:42:07.981Z,5.72
2022-09-04T01:47:21.219Z,5.65
2022-09-04T01:50:18.395Z,4.78
2022-09-04T01:53:13.167Z,4.00
2022-09-04T01:56:38.097Z,4.50
2022-09-04T01:59:26.525Z,6.55
2022-09-04T02:02:06.812Z,6.18
2022-09-04T02:04:45.273Z,8.50
2022-09-04T02:07:42.881Z,6.65
2022-09-04T02:10:44.768Z,5.32
2022-09-04T02:13:48.311Z,5.25
2022-09-04T02:16:20.247Z,4.43
2022-09-04T02:19:27.576Z,8.45
2022-09-04T02:22:19.301Z,8.20
2022-09-04T02:25:06.464Z,4.40
2022-09-04T02:28:04.847Z,7.40
2022-09-04T02:30:54.993Z,5.07
2022-09-04T02:33:29.857Z,7.20
2022-09-04T02:36:16.126Z,3.90
2022-09-04T02:41:29.796Z,5.43
2022-09-04T02:44:06.432Z,7.28
2022-09-04T02:46:59.596Z,5.72
2022-09-04T02:49:37.324Z,4.93
2022-09-04T02:52:18.514Z,7.97
2022-09-04T02:55:06.372Z,3.80
2022-09-04T02:58:08.606Z,6.85
2022-09-04T03:00:56.937Z,4.32
2022-09-04T03:03:42.621Z,6.50
2022-09-04T03:06:42.870Z,7.07
2022-09-04T03:09:49.377Z,4.63
2022-09-04T03:12:45.043Z,7.13
2022-09-04T03:15:15.019Z,4.78
2022-09-04T03:18:16.968Z,5.75
2022-09-04T03:20:50.705Z,7.13
2022-09-04T03:23:21.923Z,4.60
2022-09-04T03:26:20.875Z,4.32
2022-09-04T03:29:15.131Z,5.07
2022-09-04T03:32:16.347Z,5.32
2022-09-04T03:35:03.474Z,5.15
2022-09-04T03:37:41.618Z,4.13
2022-09-04T03:40:48.959Z,5.03
2022-09-04T03:43:31.849Z,4.60
2022-09-04T03:46:10.599Z,3.83
2022-09-04T03:48:43.821Z,8.02
2022-09-04T03:51:27.170Z,6.28
2022-09-04T03:53:57.973Z,4.68
2022-09-04T03:56:44.765Z,5.10
2022-09-04T03:59:27.821Z,4.95
2022-09-04T04:02:16.913Z,3.63
2022-09-04T04:04:52.687Z,3.22
2022-09-04T04:07:30.432Z,7.50
2022-09-04T04:10:45.483Z,8.73
2022-09-04T04:13:36.513Z,6.70
2022-09-04T04:16:24.652Z,5.95
2022-09-04T04:21:56.127Z,3.78
2022-09-04T04:24:39.131Z,4.80
2022-09-04T04:27:22.032Z,5.72
2022-09-04T04:30:04.213Z,3.78
2022-09-04T04:32:46.124Z,8.98
2022-09-04T04:35:41.263Z,3.00
2022-09-04T04:38:09.409Z,5.78
2022-09-04T04:41:07.621Z,3.67
2022-09-04T04:43:50.911Z,4.30
2022-09-04T04:46:34.800Z,7.50
2022-09-04T04:49:23.229Z,3.35
2022-09-04T04:52:04.116Z,4.30
2022-09-04T04:54:51.794Z,5.57
2022-09-04T04:57:29.501Z,4.63
2022-09-04T05:00:29.488Z,3.92
2022-09-04T05:03:25.648Z,4.10
2022-09-04T05:06:04.336Z,3.63
2022-09-04T05:09:08.804Z,3.13
2022-09-04T05:12:21.469Z,4.90
2022-09-04T05:15:02.353Z,2.67
2022-09-04T05:18:02.122Z,3.45
2022-09-04T05:20:39.627Z,3.95
2022-09-04T05:23:19.654Z,3.58
2022-09-04T05:26:18.307Z,2.80
2022-09-04T05:28:50.553Z,4.40
2022-09-04T05:31:37.712Z,4.25
2022-09-04T05:34:25.423Z,2.90
2022-09-04T05:43:53.930Z,5.65
2022-09-04T05:46:59.953Z,3.30
2022-09-04T05:49:54.304Z,3.17
2022-09-04T05:52:47.109Z,5.13
2022-09-04T05:55:37.249Z,2.08
2022-09-04T05:58:17.846Z,3.08
2022-09-04T06:01:18.986Z,3.88
2022-09-04T06:04:14.659Z,3.47
2022-09-04T06:07:09.671Z,2.95
2022-09-04T06:09:58.753Z,2.30
2022-09-04T06:12:46.043Z,2.38
2022-09-04T06:15:49.174Z,3.20
2022-09-04T06:18:42.829Z,2.35
2022-09-04T06:21:38.748Z,1.92
2022-09-04T06:24:15.417Z,2.47
2022-09-04T06:27:08.160Z,2.10
2022-09-04T06:30:08.355Z,3.17
2022-09-04T06:32:41.916Z,3.20
2022-09-04T06:35:31.022Z,4.00
2022-09-04T06:38:09.330Z,4.20
2022-09-04T06:40:53.217Z,3.08
2022-09-04T06:43:21.216Z,4.63
2022-09-04T06:46:08.546Z,3.80
2022-09-04T06:49:11.382Z,3.28
2022-09-04T06:52:07.984Z,1.73
2022-09-04T06:54:59.378Z,3.05
2022-09-04T06:57:29.288Z,2.05
2022-09-04T07:00:10.503Z,2.30
2022-09-04T07:03:09.356Z,2.03
2022-09-04T07:05:55.108Z,1.40
2022-09-04T07:08:40.806Z,4.20
2022-09-04T07:11:17.717Z,1.80
2022-09-04T07:14:17.043Z,2.72
2022-09-04T07:17:39.791Z,3.53
2022-09-04T07:20:11.680Z,2.05
2022-09-04T07:23:07.103Z,1.38
2022-09-04T07:25:57.490Z,5.35
2022-09-04T07:28:44.409Z,3.25
2022-09-04T07:31:33.084Z,2.10
2022-09-04T07:34:25.476Z,1.73
2022-09-04T07:37:28.008Z,7.75
2022-09-04T07:40:16.561Z,2.10
2022-09-04T07:43:08.132Z,1.95
2022-09-04T07:45:40.002Z,1.77
2022-09-04T07:48:31.779Z,1.52
2022-09-04T07:51:11.089Z,1.65
2022-09-04T07:54:00.171Z,2.45
2022-09-04T07:57:01.937Z,2.25
2022-09-04T07:59:52.274Z,1.20
2022-09-04T08:02:56.800Z,1.92
2022-09-04T08:05:31.774Z,1.27
2022-09-04T08:08:12.871Z,2.22
2022-09-04T08:10:54.461Z,3.03
2022-09-04T08:13:40.469Z,1.90
2022-09-04T08:16:12.390Z,2.13
2022-09-04T08:19:05.494Z,2.33
2022-09-04T08:21:36.830Z,3.40
2022-09-04T08:24:32.424Z,1.50
2022-09-04T08:27:27.623Z,1.13
2022-09-04T08:30:04.732Z,1.95
2022-09-04T08:32:50.609Z,2.65
2022-09-04T08:35:42.519Z,3.00
2022-09-04T08:38:23.163Z,1.63
2022-09-04T08:41:18.266Z,1.35
2022-09-04T08:43:58.513Z,1.73
2022-09-04T08:46:32.580Z,0.90
2022-09-04T08:49:34.986Z,2.00
2022-09-04T08:52:08.952Z,3.03
2022-09-04T08:54:48.624Z,1.42
2022-09-04T08:57:47.361Z,2.15
2022-09-04T09:00:22.196Z,1.35
2022-09-04T09:03:09.403Z,3.08
2022-09-04T09:05:56.413Z,1.75
2022-09-04T09:08:46.470Z,2.83
2022-09-04T09:11:43.611Z,2.15
2022-09-04T09:14:48.824Z,2.25
2022-09-04T09:17:54.209Z,1.00
2022-09-04T09:20:31.388Z,2.42
2022-09-04T09:23:18.697Z,1.60
2022-09-04T09:25:53.262Z,2.33
2022-09-04T09:28:58.375Z,1.63
2022-09-04T09:31:51.426Z,2.80
2022-09-04T09:34:40.623Z,2.63
2022-09-04T09:37:31.743Z,1.52
2022-09-04T09:40:26.227Z,1.15
2022-09-04T09:43:27.379Z,1.50
2022-09-04T09:46:10.856Z,1.02
2022-09-04T09:48:57.168Z,2.10
2022-09-04T09:52:02.955Z,2.00
2022-09-04T09:54:52.655Z,1.65
2022-09-04T09:57:33.867Z,4.63
2022-09-04T10:00:17.146Z,1.50
2022-09-04T10:03:14.171Z,1.50
2022-09-04T10:06:03.320Z,1.35
2022-09-04T10:08:49.880Z,4.85
2022-09-04T10:11:29.909Z,3.50
2022-09-04T10:14:25.164Z,3.13
2022-09-04T10:17:14.475Z,2.38
2022-09-04T10:20:21.772Z,3.38
2022-09-04T10:23:07.954Z,2.00
2022-09-04T10:25:57.987Z,2.28
2022-09-04T10:28:49.900Z,1.20
2022-09-04T10:31:53.568Z,1.55
2022-09-04T10:34:54.490Z,1.88
2022-09-04T10:37:34.239Z,1.88
2022-09-04T10:40:39.587Z,3.35
2022-09-04T10:43:39.519Z,1.47
2022-09-04T10:46:13.762Z,1.23
2022-09-04T10:49:30.637Z,1.20
2022-09-04T10:54:54.386Z,1.27
2022-09-04T10:58:00.048Z,1.35
2022-09-04T11:01:08.667Z,1.30
2022-09-04T11:03:51.508Z,2.08
2022-09-04T11:06:26.016Z,2.80
2022-09-04T11:09:16.766Z,2.30
2022-09-04T11:12:21.709Z,1.42
2022-09-04T11:15:21.985Z,1.13
2022-09-04T11:17:59.180Z,1.73
2022-09-04T11:20:51.117Z,1.00
2022-09-04T11:23:36.928Z,1.77
2022-09-04T11:26:38.989Z,1.05
2022-09-04T11:29:24.585Z,1.70
2022-09-04T11:32:21.304Z,2.25
2022-09-04T11:35:07.822Z,1.42
2022-09-04T11:37:38.403Z,0.98
2022-09-04T11:40:32.434Z,0.93
2022-09-04T11:43:25.954Z,1.38
2022-09-04T11:46:15.666Z,1.48
2022-09-04T11:49:09.527Z,1.33
2022-09-04T11:51:47.926Z,1.42
2022-09-04T11:54:31.325Z,2.60
2022-09-04T11:57:08.111Z,1.52
2022-09-04T12:00:07.433Z,1.33
2022-09-04T12:02:38.922Z,1.50
2022-09-04T12:05:39.405Z,1.05
2022-09-04T12:08:44.881Z,1.77
2022-09-04T12:11:32.206Z,2.95
2022-09-04T12:14:20.031Z,1.10
2022-09-04T12:17:03.683Z,1.77
2022-09-04T12:19:40.683Z,1.02
2022-09-04T12:22:17.507Z,1.15
2022-09-04T12:24:51.973Z,2.00
2022-09-04T12:27:49.329Z,2.45
2022-09-04T12:30:23.915Z,1.27
2022-09-04T12:32:52.593Z,1.10
2022-09-04T12:35:54.667Z,1.08
2022-09-04T12:38:54.474Z,2.90
2022-09-04T12:41:29.209Z,1.63
2022-09-04T12:44:36.978Z,1.00
2022-09-04T12:47:12.293Z,1.92
2022-09-04T12:50:03.983Z,1.35
2022-09-04T12:53:14.159Z,2.13
2022-09-04T12:56:12.276Z,1.98
2022-09-04T12:58:59.592Z,1.17
2022-09-04T13:04:11.736Z,1.58
2022-09-04T13:06:54.174Z,1.67
2022-09-04T13:09:53.704Z,3.40
2022-09-04T13:12:39.544Z,2.20
2022-09-04T13:15:40.041Z,1.15
2022-09-04T13:18:25.941Z,4.18
2022-09-04T13:21:07.223Z,0.95
2022-09-04T13:23:46.369Z,2.20
2022-09-04T13:26:21.976Z,0.70
2022-09-04T13:28:58.828Z,1.70
2022-09-04T13:31:34.545Z,0.88
2022-09-04T13:34:28.495Z,1.55
2022-09-04T13:37:13.422Z,0.70
2022-09-04T13:40:09.743Z,1.40
2022-09-04T13:42:56.535Z,1.93
2022-09-04T13:47:59.604Z,0.75
2022-09-04T13:50:32.373Z,0.88
2022-09-04T13:53:03.097Z,0.50
2022-09-04T13:55:39.748Z,1.52
2022-09-04T13:58:28.821Z,0.82
2022-09-04T14:00:59.438Z,1.58
2022-09-04T14:03:40.740Z,1.15
2022-09-04T14:06:15.059Z,2.15
2022-09-04T14:08:45.119Z,1.63
2022-09-04T14:11:21.797Z,0.90
2022-09-04T14:14:23.549Z,1.50
2022-09-04T14:16:55.885Z,0.88
2022-09-04T14:19:47.418Z,1.10
2022-09-04T14:22:38.673Z,0.57
2022-09-04T14:25:12.703Z,2.15
2022-09-04T14:27:48.056Z,1.38
2022-09-04T14:30:17.895Z,0.90
2022-09-04T14:32:50.232Z,1.90
2022-09-04T14:35:47.025Z,0.95
2022-09-04T14:38:24.566Z,0.80
2022-09-04T14:41:05.751Z,3.47
2022-09-04T14:44:03.482Z,0.95
2022-09-04T14:46:47.565Z,2.08
2022-09-04T14:49:21.537Z,1.38
2022-09-04T14:51:50.417Z,1.42
2022-09-04T14:54:40.353Z,1.00
2022-09-04T14:57:43.492Z,1.17
2022-09-04T15:00:17.529Z,1.45
2022-09-04T15:03:13.500Z,1.95
2022-09-04T15:05:55.972Z,2.03
2022-09-04T15:08:40.376Z,2.42
2022-09-04T15:11:10.636Z,0.98
2022-09-04T15:13:52.950Z,2.83
2022-09-04T15:16:21.889Z,1.73
2022-09-04T15:18:56.764Z,2.00
2022-09-04T15:21:45.636Z,3.55
2022-09-04T15:24:26.548Z,1.00
2022-09-04T15:27:28.559Z,1.65
2022-09-04T15:30:25.111Z,1.02
2022-09-04T15:33:12.580Z,1.52
2022-09-04T15:35:41.435Z,1.75
2022-09-04T15:38:21.212Z,1.27
2022-09-04T15:41:15.058Z,3.15
2022-09-04T15:44:18.092Z,2.55
2022-09-04T15:46:57.370Z,2.22
2022-09-04T15:50:01.182Z,1.55
2022-09-04T15:52:41.380Z,1.00
2022-09-04T15:55:22.709Z,4.05
2022-09-04T15:58:13.296Z,2.88
2022-09-04T16:01:06.460Z,1.25
2022-09-04T16:03:55.466Z,2.78
2022-09-04T16:06:38.240Z,1.27
2022-09-04T16:09:11.394Z,1.20
2022-09-04T16:11:59.991Z,3.85
2022-09-04T16:14:44.836Z,9.07
2022-09-04T16:17:17.186Z,1.88
2022-09-04T16:20:01.963Z,2.08
2022-09-04T16:22:51.420Z,1.73
2022-09-04T16:25:22.487Z,1.92
2022-09-04T16:27:54.437Z,1.52
2022-09-04T16:30:34.808Z,1.25
2022-09-04T16:33:03.291Z,1.75
2022-09-04T16:35:40.417Z,1.33
2022-09-04T16:38:21.035Z,2.33
2022-09-04T16:41:01.201Z,2.47
2022-09-04T16:43:34.328Z,3.42
2022-09-04T16:46:27.715Z,1.50
2022-09-04T16:48:59.362Z,4.63
2022-09-04T16:51:41.423Z,3.10
2022-09-04T16:54:41.515Z,1.92
2022-09-04T16:57:13.807Z,2.15
2022-09-04T16:59:53.386Z,2.22
2022-09-04T17:02:39.935Z,3.88
2022-09-04T17:07:59.655Z,2.33
2022-09-04T17:10:42.799Z,4.50
2022-09-04T17:13:13.181Z,3.05
2022-09-04T17:15:58.789Z,3.47
2022-09-04T17:18:28.278Z,5.95
2022-09-04T17:24:12.838Z,3.25
2022-09-04T17:28:55.487Z,2.72
2022-09-04T17:29:14.606Z,3.17
2022-09-04T17:29:48.028Z,2.47
2022-09-04T17:34:04.314Z,3.72
2022-09-04T17:40:37.147Z,1.25
2022-09-04T17:40:41.303Z,3.28
2022-09-04T17:42:09.925Z,2.58
2022-09-04T17:44:46.917Z,4.13
2022-09-04T17:47:29.035Z,2.35
2022-09-04T17:49:56.861Z,3.03
2022-09-04T17:52:30.170Z,3.30
2022-09-04T17:55:11.142Z,5.72
2022-09-04T17:58:05.383Z,4.80
2022-09-04T18:01:14.530Z,7.57
2022-09-04T18:04:21.661Z,4.65
2022-09-04T18:07:33.659Z,6.22
2022-09-04T18:10:01.219Z,6.53
2022-09-04T18:12:34.747Z,6.15
2022-09-04T18:15:34.511Z,5.03
2022-09-04T18:18:30.155Z,5.82
2022-09-04T18:21:06.034Z,4.88
2022-09-04T18:23:46.774Z,5.57
2022-09-04T18:26:41.728Z,4.47
2022-09-04T18:29:58.230Z,6.93
2022-09-04T18:37:08.058Z,7.88
2022-09-04T18:37:22.648Z,9.82
2022-09-04T18:38:36.726Z,9.63
2022-09-04T18:46:41.350Z,10.35
2022-09-04T18:50:40.574Z,13.75
2022-09-04T18:50:44.272Z,11.20
2022-09-04T18:53:53.110Z,14.00
2022-09-04T18:56:31.126Z,11.85
2022-09-04T18:59:04.967Z,10.63
2022-09-04T19:01:58.053Z,14.15
2022-09-04T19:04:33.282Z,8.98
2022-09-04T19:07:09.055Z,10.60
2022-09-04T19:10:15.802Z,10.40
2022-09-04T19:12:52.557Z,11.30
2022-09-04T19:18:34.193Z,13.50
2022-09-04T19:21:15.210Z,15.15
2022-09-04T19:23:51.312Z,13.18
2022-09-04T19:26:36.432Z,10.48
2022-09-04T19:29:12.631Z,9.52
2022-09-04T19:32:08.626Z,11.82
2022-09-04T19:34:56.720Z,9.68
2022-09-04T19:44:10.159Z,12.53
2022-09-04T19:46:05.989Z,12.02
2022-09-04T19:46:19.913Z,16.10
2022-09-04T19:46:30.523Z,14.68
2022-09-04T19:51:28.773Z,10.73
2022-09-04T19:53:32.275Z,9.50
2022-09-04T19:55:24.782Z,11.80
2022-09-04T19:58:08.114Z,10.30
2022-09-04T20:00:43.402Z,12.05
2022-09-04T20:03:43.345Z,9.55
2022-09-04T20:06:20.408Z,14.90
2022-09-04T20:08:58.252Z,12.10
2022-09-04T20:14:13.608Z,11.63
2022-09-04T20:16:58.342Z,11.60
2022-09-04T20:20:01.375Z,15.15
2022-09-04T20:22:36.448Z,9.20
2022-09-04T20:25:40.057Z,9.35
2022-09-04T20:28:36.526Z,8.10
2022-09-04T20:31:36.167Z,10.53
2022-09-04T20:34:21.084Z,7.75
2022-09-04T20:37:11.251Z,9.02
2022-09-04T20:39:48.906Z,8.23
2022-09-04T20:42:33.772Z,9.77
2022-09-04T20:48:02.324Z,9.00
2022-09-04T20:52:55.451Z,11.23
2022-09-04T20:52:59.376Z,6.75
2022-09-04T20:54:06.307Z,11.93
2022-09-04T20:59:48.374Z,7.55
2022-09-04T21:03:12.536Z,8.75
2022-09-04T21:03:21.972Z,7.13
2022-09-04T21:05:56.356Z,6.55
2022-09-04T21:08:33.420Z,8.88
2022-09-04T21:11:39.601Z,8.98
2022-09-04T21:14:11.381Z,8.15
2022-09-04T21:17:03.000Z,8.57
2022-09-04T21:20:07.435Z,9.13
2022-09-04T21:22:54.499Z,8.70
2022-09-04T21:28:11.191Z,12.15
2022-09-04T21:30:58.033Z,14.20
2022-09-04T21:33:39.731Z,10.05
2022-09-04T21:36:26.549Z,12.98
2022-09-04T21:39:35.514Z,9.82
2022-09-04T21:42:41.398Z,7.55
2022-09-04T21:45:25.002Z,11.35
2022-09-04T21:47:58.688Z,10.45
2022-09-04T21:50:58.806Z,8.30
2022-09-04T21:54:00.093Z,10.48
2022-09-04T22:02:26.845Z,13.88
2022-09-04T22:02:45.495Z,10.93
2022-09-04T22:03:20.381Z,9.10
2022-09-04T22:06:03.813Z,12.13
2022-09-04T22:13:27.220Z,10.18
2022-09-04T22:13:46.217Z,11.02
2022-09-04T22:14:50.935Z,10.35
2022-09-04T22:17:53.431Z,9.75
2022-09-04T22:20:31.004Z,12.50
2022-09-04T22:23:24.993Z,12.30
2022-09-04T22:26:24.600Z,11.88
2022-09-04T22:29:39.565Z,14.50
2022-09-04T22:32:29.535Z,9.60
2022-09-04T22:35:07.836Z,12.15
2022-09-04T22:37:48.030Z,9.75
2022-09-04T22:40:55.784Z,8.55
2022-09-04T22:43:25.701Z,11.98
2022-09-04T22:46:34.601Z,8.90
2022-09-04T22:49:36.002Z,10.38
2022-09-04T22:52:19.979Z,7.40
2022-09-04T22:55:36.562Z,10.35
2022-09-04T22:58:39.840Z,10.30
2022-09-04T23:01:36.780Z,10.02
2022-09-04T23:04:20.011Z,8.98
2022-09-04T23:13:18.089Z,9.38
2022-09-04T23:13:51.048Z,11.63
2022-09-04T23:13:59.559Z,10.77
2022-09-04T23:16:31.080Z,12.63
2022-09-04T23:21:23.566Z,8.98
2022-09-04T23:26:44.646Z,11.80
2022-09-04T23:26:45.335Z,8.90
2022-09-04T23:28:29.377Z,10.05
2022-09-04T23:31:37.184Z,9.48
2022-09-04T23:34:21.472Z,9.20
2022-09-04T23:37:05.510Z,10.80
2022-09-04T23:40:00.153Z,10.23
2022-09-04T23:43:07.976Z,10.63
2022-09-04T23:46:02.006Z,13.75
2022-09-04T23:48:55.277Z,11.88
2022-09-04T23:51:33.133Z,13.15
2022-09-04T23:54:38.286Z,18.23
2022-09-04T23:57:26.600Z,18.88
